Time;durP1;ratioP1;P1;durP2;ratioP2;P2;SDS_P1;SDS_P2;PMS_P1;PMS_P2;Temp;Humidity;BMP_temperature;BMP_pressure;BME280_temperature;BME280_humidity;BME280_pressure;Samples;Min_cycle;Max_cycle;Signal;HPM_P1;HPM_P2
2022/11/01 00:02:08;;;;;;;2.23;1.33;;;;;;;4.26;63.41;100929.38;1602605;88;21015;-60
2022/11/01 00:04:35;;;;;;;5.27;2.50;;;;;;;4.24;63.77;100926.53;1617137;88;21056;-58
2022/11/01 00:07:01;;;;;;;1.60;1.42;;;;;;;4.25;64.01;100928.19;1605746;88;21150;-59
2022/11/01 00:09:28;;;;;;;5.08;1.82;;;;;;;4.22;63.98;100925.80;1604113;88;21116;-59
2022/11/01 00:11:55;;;;;;;3.23;1.57;;;;;;;4.24;64.30;100926.03;1601857;88;21001;-58
2022/11/01 00:14:21;;;;;;;6.37;1.55;;;;;;;4.26;64.65;100928.55;1605965;88;21057;-60
2022/11/01 00:16:48;;;;;;;4.85;1.95;;;;;;;4.25;64.52;100925.55;1594740;88;21092;-58
2022/11/01 00:19:16;;;;;;;3.73;1.13;;;;;;;4.24;64.66;100925.20;1596543;88;21053;-58
2022/11/01 00:21:42;;;;;;;3.37;1.63;;;;;;;4.22;64.83;100919.20;1602037;88;21077;-62
2022/11/01 00:24:09;;;;;;;4.55;1.60;;;;;;;4.19;65.19;100931.36;1595368;88;21490;-57
2022/11/01 00:26:36;;;;;;;2.53;1.40;;;;;;;4.18;65.37;100929.67;1597169;89;21041;-59
2022/11/01 00:29:02;;;;;;;3.40;1.60;;;;;;;4.17;65.65;100925.38;1594783;88;21049;-58
2022/11/01 00:31:29;;;;;;;2.77;1.50;;;;;;;4.18;65.30;100924.39;1601748;88;21169;-59
2022/11/01 00:33:55;;;;;;;1.75;1.20;;;;;;;4.19;65.40;100923.44;1590501;88;21049;-58
2022/11/01 00:36:21;;;;;;;3.80;2.25;;;;;;;4.21;65.62;100920.19;1602034;88;21095;-60
2022/11/01 00:38:51;;;;;;;3.33;1.55;;;;;;;4.20;65.56;100918.50;1600377;88;21113;-57
2022/11/01 00:41:19;;;;;;;5.00;1.23;;;;;;;4.17;65.68;100924.06;1615312;88;21529;-59
2022/11/01 00:43:46;;;;;;;2.73;1.50;;;;;;;4.16;65.71;100930.30;1602852;88;21538;-59
2022/11/01 00:46:12;;;;;;;4.87;1.98;;;;;;;4.14;65.92;100930.91;1610162;88;21098;-60
2022/11/01 00:48:40;;;;;;;3.13;1.73;;;;;;;4.12;65.95;100938.13;1610855;88;21053;-58
2022/11/01 00:51:07;;;;;;;2.70;1.57;;;;;;;4.12;66.06;100939.45;1611511;88;21144;-61
2022/11/01 00:53:35;;;;;;;2.13;1.20;;;;;;;4.10;66.12;100935.12;1617507;87;21000;-59
2022/11/01 00:56:06;;;;;;;3.05;1.52;;;;;;;4.10;66.34;100935.61;1613241;87;21524;-60
2022/11/01 00:58:34;;;;;;;2.43;1.47;;;;;;;4.08;66.55;100942.34;1610665;87;21044;-58
2022/11/01 01:01:01;;;;;;;1.57;1.07;;;;;;;4.06;66.46;100941.63;1622000;87;21064;-60
2022/11/01 01:03:27;;;;;;;6.47;1.00;;;;;;;4.06;66.49;100935.53;1610437;87;21136;-59
2022/11/01 01:05:54;;;;;;;3.08;1.12;;;;;;;4.03;66.51;100931.82;1609777;87;21099;-59
2022/11/01 01:08:23;;;;;;;5.13;2.47;;;;;;;4.04;66.71;100929.55;1625946;87;21100;-60
2022/11/01 01:10:50;;;;;;;3.77;1.40;;;;;;;4.06;66.92;100931.57;1627594;87;21021;-59
2022/11/01 01:13:17;;;;;;;2.77;1.10;;;;;;;4.06;67.20;100928.44;1604659;88;21538;-61
2022/11/01 01:15:45;;;;;;;2.33;1.50;;;;;;;4.05;67.00;100930.75;1601397;89;21079;-59
2022/11/01 01:18:15;;;;;;;2.67;1.43;;;;;;;4.07;67.32;100933.26;1613254;88;21546;-60
2022/11/01 01:20:43;;;;;;;3.17;1.97;;;;;;;4.07;67.51;100937.22;1603720;87;21052;-60
2022/11/01 01:23:09;;;;;;;2.58;1.80;;;;;;;4.04;67.84;100927.74;1609630;88;21030;-59
2022/11/01 01:25:40;;;;;;;6.78;2.12;;;;;;;4.03;67.80;100923.91;1615971;87;21522;-62
2022/11/01 01:28:08;;;;;;;5.37;1.60;;;;;;;3.99;68.08;100928.61;1615360;87;21105;-58
2022/11/01 01:30:34;;;;;;;3.97;2.20;;;;;;;3.97;68.11;100926.59;1601914;87;21086;-60
2022/11/01 01:33:01;;;;;;;;;;;;;;;3.95;68.26;100929.84;1602064;87;21051;-57
2022/11/01 01:35:27;;;;;;;6.47;2.20;;;;;;;3.94;68.45;100925.55;1612411;87;20165;-58
2022/11/01 01:37:53;;;;;;;3.92;1.90;;;;;;;3.88;68.67;100928.69;1582264;89;21108;-59
2022/11/01 01:40:19;;;;;;;2.62;1.25;;;;;;;3.88;68.62;100928.69;1600916;87;21033;-60
2022/11/01 01:42:46;;;;;;;6.80;1.70;;;;;;;3.91;68.74;100925.80;1585225;89;21518;-58
2022/11/01 01:45:24;;;;;;;5.53;3.40;;;;;;;3.93;68.59;100923.86;1593622;89;21069;-60
2022/11/01 01:47:55;;;;;;;5.80;2.07;;;;;;;3.94;68.78;100925.55;1585532;90;21061;-59
2022/11/01 01:50:36;;;;;;;3.87;2.10;;;;;;;3.94;68.91;100926.88;1614450;87;21006;-61
2022/11/01 01:53:17;;;;;;;1.90;1.47;;;;;;;3.93;68.99;100922.55;1612732;87;21587;-62
2022/11/01 01:55:59;;;;;;;4.07;1.87;;;;;;;3.93;68.92;100921.23;1605121;88;21100;-58
2022/11/01 01:58:31;;;;;;;4.97;1.80;;;;;;;3.92;68.93;100918.25;1599225;88;21044;-59
2022/11/01 02:00:58;;;;;;;4.60;1.80;;;;;;;3.93;68.91;100921.23;1602246;87;21532;-58
2022/11/01 02:03:31;;;;;;;3.77;2.07;;;;;;;3.95;68.85;100926.38;1601982;88;21582;-57
2022/11/01 02:06:14;;;;;;;7.07;2.40;;;;;;;3.97;68.85;100921.80;1596564;88;21486;-58
2022/11/01 02:08:56;;;;;;;5.80;2.20;;;;;;;4.00;68.94;100928.15;1608403;87;21056;-58
2022/11/01 02:11:23;;;;;;;4.40;2.40;;;;;;;3.95;69.17;100931.16;1618270;87;21080;-59
2022/11/01 02:13:51;;;;;;;5.13;2.10;;;;;;;3.95;69.36;100932.48;1631063;87;21021;-58
2022/11/01 02:16:47;;;;;;;2.10;1.53;;;;;;;3.95;69.41;100936.93;1606046;87;21589;-59
2022/11/01 02:19:53;;;;;;;3.63;2.30;;;;;;;3.94;69.50;100930.83;1612318;87;21041;-60
2022/11/01 02:23:19;;;;;;;3.87;1.83;;;;;;;3.94;69.72;100937.88;1607472;87;21497;-59
2022/11/01 02:26:04;;;;;;;5.67;1.90;;;;;;;3.89;69.78;100939.60;1611962;85;21564;-57
2022/11/01 02:29:11;;;;;;;2.90;1.83;;;;;;;3.79;70.22;100942.67;1610809;87;21142;-58
2022/11/01 02:32:03;;;;;;;3.22;1.92;;;;;;;3.76;70.23;100938.97;1605885;87;21120;-58
2022/11/01 02:34:41;;;;;;;6.00;1.90;;;;;;;3.72;70.21;100938.39;1616848;87;21605;-59
2022/11/01 02:37:20;;;;;;;1.60;1.40;;;;;;;3.73;70.29;100943.17;1600566;87;21030;-59
2022/11/01 02:39:52;;;;;;;2.43;1.90;;;;;;;3.76;70.41;100947.70;1601540;88;21018;-58
2022/11/01 02:42:26;;;;;;;3.30;2.03;;;;;;;3.76;70.42;100944.25;1600620;88;21001;-58
2022/11/01 02:45:01;;;;;;;2.33;1.53;;;;;;;3.75;70.54;100946.52;1602106;88;21576;-61
2022/11/01 02:47:31;;;;;;;13.20;2.90;;;;;;;3.70;70.55;100948.23;1599446;88;21243;-58
2022/11/01 02:50:02;;;;;;;6.80;1.70;;;;;;;3.61;70.73;100943.73;1599234;87;21023;-57
2022/11/01 02:52:35;;;;;;;3.27;1.80;;;;;;;3.56;70.93;100941.48;1605922;87;21073;-58
2022/11/01 02:55:07;;;;;;;3.03;1.90;;;;;;;3.58;71.09;100950.10;1604728;87;21570;-58
2022/11/01 02:57:37;;;;;;;2.23;1.33;;;;;;;3.59;71.15;100954.39;1615193;87;21005;-58
2022/11/01 03:00:27;;;;;;;2.70;2.07;;;;;;;3.58;71.27;100954.52;1609244;87;21513;-65
2022/11/01 03:03:30;;;;;;;7.93;2.23;;;;;;;3.57;71.26;100962.09;1592785;89;21078;-57
2022/11/01 03:06:06;;;;;;;4.53;1.80;;;;;;;3.59;71.30;100960.16;1576491;89;21494;-57
2022/11/01 03:08:41;;;;;;;2.70;1.80;;;;;;;3.57;71.49;100957.64;1589995;88;21029;-58
2022/11/01 03:11:14;;;;;;;3.43;2.03;;;;;;;3.57;71.41;100963.41;1596203;89;21097;-59
2022/11/01 03:14:06;;;;;;;6.50;2.23;;;;;;;3.56;71.47;100965.67;1607860;87;21042;-58
2022/11/01 03:16:57;;;;;;;5.93;1.47;;;;;;;3.55;71.60;100966.16;1584277;89;21098;-58
2022/11/01 03:19:46;;;;;;;4.37;1.90;;;;;;;3.57;71.84;100961.59;1604555;88;21008;-58
2022/11/01 03:22:33;;;;;;;5.10;2.13;;;;;;;3.57;71.75;100968.19;1585708;89;21143;-60
2022/11/01 03:28:19;;;;;;;4.47;2.57;;;;;;;3.59;71.83;100957.03;1579236;89;21068;-58
2022/11/01 03:31:01;;;;;;;4.23;2.53;;;;;;;3.55;72.08;100955.62;1583188;89;21103;-58
2022/11/01 03:33:29;;;;;;;7.33;2.53;;;;;;;3.52;72.19;100953.22;1585220;89;21514;-58
2022/11/01 03:36:02;;;;;;;5.30;2.83;;;;;;;3.51;72.32;100959.48;1590234;90;21140;-58
2022/11/01 03:38:33;;;;;;;5.83;2.03;;;;;;;3.50;72.34;100961.74;1586181;89;21089;-57
2022/11/01 03:41:06;;;;;;;4.43;2.47;;;;;;;3.48;72.46;100957.08;1592614;89;21096;-59
2022/11/01 03:43:35;;;;;;;4.53;3.10;;;;;;;3.09;72.56;100897.52;1586928;90;21057;-57
2022/11/01 03:46:02;;;;;;;5.60;2.63;;;;;;;3.46;72.67;100959.84;1588606;89;21085;-57
2022/11/01 03:48:29;;;;;;;6.20;2.87;;;;;;;3.45;73.02;100953.41;1588599;89;21617;-57
2022/11/01 03:50:55;;;;;;;6.70;3.15;;;;;;;3.44;72.96;100951.72;1587453;89;21058;-59
2022/11/01 03:53:24;;;;;;;6.00;2.97;;;;;;;3.45;72.91;100954.23;1589355;89;21079;-58
2022/11/01 03:55:50;;;;;;;9.10;3.20;;;;;;;3.43;72.81;100959.29;1588475;89;21118;-57
2022/11/01 03:58:17;;;;;;;6.37;4.20;;;;;;;3.43;72.91;100964.07;1588344;89;20996;-58
2022/11/01 04:00:44;;;;;;;;;;;;;;;3.39;72.87;100957.38;1618282;87;21568;-59
2022/11/01 04:03:12;;;;;;;9.33;3.58;;;;;;;3.39;73.14;100969.70;1592016;89;20172;-59
2022/11/01 04:05:41;;;;;;;5.90;4.10;;;;;;;3.34;73.31;100963.99;1616994;87;21034;-61
2022/11/01 04:08:10;;;;;;;7.07;4.13;;;;;;;3.32;73.14;100964.11;1596727;88;21092;-57
2022/11/01 04:10:38;;;;;;;5.83;2.97;;;;;;;3.29;73.20;100962.55;1609154;88;21051;-59
2022/11/01 04:13:04;;;;;;;7.00;3.72;;;;;;;3.24;73.32;100966.06;1600992;88;21104;-59
2022/11/01 04:21:18;;;;;;;7.03;3.00;;;;;;;3.15;73.93;100966.80;1600163;88;21055;-60
2022/11/01 04:23:45;;;;;;;4.70;3.27;;;;;;;3.14;74.07;100978.30;1601893;89;21099;-67
2022/11/01 04:26:16;;;;;;;4.77;3.10;;;;;;;3.13;74.26;100976.64;1595431;88;21084;-58
2022/11/01 04:28:55;;;;;;;5.13;3.17;;;;;;;3.12;74.29;100974.95;1600131;88;21576;-57
2022/11/01 04:31:11;;;;;;;7.03;3.50;;;;;;;3.13;74.33;100977.95;1600101;88;21037;-59
2022/11/01 04:33:37;;;;;;;3.98;2.62;;;;;;;3.13;74.24;100972.69;1603671;88;21893;-59
2022/11/01 04:36:06;;;;;;;4.43;3.27;;;;;;;3.15;74.36;100979.98;1605304;88;21190;-59
2022/11/01 04:38:32;;;;;;;5.77;3.20;;;;;;;3.16;74.53;100979.48;1602239;88;21033;-59
2022/11/01 04:40:58;;;;;;;6.03;3.60;;;;;;;3.18;74.58;100978.39;1597258;87;21546;-61
2022/11/01 04:43:24;;;;;;;7.17;3.95;;;;;;;3.19;74.44;100985.84;1613573;87;21565;-59
2022/11/01 04:45:55;;;;;;;7.60;4.53;;;;;;;3.18;74.53;100986.78;1589642;88;21152;-57
2022/11/01 04:48:22;;;;;;;5.27;3.77;;;;;;;3.18;74.52;100990.25;1615398;87;21073;-58
2022/11/01 04:50:50;;;;;;;5.00;3.00;;;;;;;3.20;74.55;100986.17;1603914;87;21034;-57
2022/11/01 04:53:16;;;;;;;5.87;3.60;;;;;;;3.21;74.62;100994.45;1603517;87;20994;-60
2022/11/01 04:55:42;;;;;;;;;;;;;;;3.22;74.60;100985.11;1596483;89;21108;-60
2022/11/01 04:58:09;;;;;;;8.17;3.80;;;;;;;3.24;74.82;100991.09;1588242;89;20390;-57
2022/11/01 05:00:37;;;;;;;7.27;4.50;;;;;;;3.21;74.81;100991.81;1586080;89;21148;-59
2022/11/01 05:03:06;;;;;;;;;;;;;;;3.20;74.76;100993.63;1599932;88;21017;-62
2022/11/01 05:05:33;;;;;;;;;;;;;;;3.22;74.81;100994.79;1599678;88;20156;-58
2022/11/01 05:08:06;;;;;;;8.80;5.10;;;;;;;3.18;75.13;100996.83;1589826;88;20114;-65
2022/11/01 05:10:35;;;;;;;6.93;4.33;;;;;;;3.14;75.28;100986.20;1603029;89;21082;-64
2022/11/01 05:13:04;;;;;;;7.00;4.63;;;;;;;3.18;75.46;100986.78;1594175;88;21075;-67
2022/11/01 05:15:32;;;;;;;11.33;7.10;;;;;;;3.24;75.61;100987.59;1595995;88;21092;-68
2022/11/01 05:18:00;;;;;;;11.70;6.10;;;;;;;3.28;75.70;100985.92;1602102;86;21149;-71
2022/11/01 05:20:32;;;;;;;18.50;7.30;;;;;;;3.33;75.58;100988.17;1618710;87;21113;-66
2022/11/01 05:23:00;;;;;;;21.17;8.93;;;;;;;3.31;75.51;100976.46;1612553;87;21067;-67
2022/11/01 05:25:28;;;;;;;19.57;10.70;;;;;;;3.54;75.57;100993.96;1604745;87;21179;-68
2022/11/01 05:28:06;;;;;;;19.53;10.70;;;;;;;3.94;74.56;100998.55;1618000;87;21048;-68
2022/11/01 05:30:35;;;;;;;21.52;11.45;;;;;;;4.51;72.16;100995.88;1619711;87;21095;-72
2022/11/01 05:33:04;;;;;;;17.07;10.00;;;;;;;5.13;69.94;100994.47;1602242;88;21035;-70
2022/11/01 05:35:34;;;;;;;15.77;10.07;;;;;;;5.73;66.76;100993.86;1604338;88;21069;-69
2022/11/01 05:38:03;;;;;;;15.63;8.57;;;;;;;6.29;65.36;100991.39;1612797;87;21527;-70
2022/11/01 05:40:31;;;;;;;18.70;10.33;;;;;;;6.87;62.14;100988.98;1605145;87;21140;-65
2022/11/01 05:42:57;;;;;;;12.47;6.50;;;;;;;7.24;61.42;100990.72;1612679;89;21046;-67
2022/11/01 05:45:25;;;;;;;11.93;6.37;;;;;;;7.30;59.90;100987.46;1595522;89;21076;-66
2022/11/01 05:47:51;;;;;;;7.27;4.67;;;;;;;7.08;59.49;100991.38;1592766;89;21101;-63
2022/11/01 05:50:18;;;;;;;8.17;5.43;;;;;;;6.78;59.89;100992.87;1598038;89;21459;-59
2022/11/01 05:52:44;;;;;;;8.35;4.92;;;;;;;6.47;60.36;100988.84;1604324;89;21139;-72
2022/11/01 05:55:10;;;;;;;6.37;4.85;;;;;;;6.12;61.48;100993.83;1620571;87;21538;-72
2022/11/01 05:57:37;;;;;;;10.50;6.10;;;;;;;5.89;62.36;100989.80;1591818;89;21048;-72
2022/11/01 06:00:06;;;;;;;10.37;6.30;;;;;;;5.64;63.17;100986.77;1614344;88;21530;-69
2022/11/01 06:02:35;;;;;;;9.03;5.73;;;;;;;5.45;64.12;100995.53;1597317;88;21564;-70
2022/11/01 06:05:01;;;;;;;7.92;5.70;;;;;;;5.29;64.73;100996.56;1598732;88;21614;-72
2022/11/01 06:07:29;;;;;;;11.37;6.57;;;;;;;5.18;65.36;101001.01;1591160;88;21070;-69
2022/11/01 06:09:57;;;;;;;7.00;5.00;;;;;;;4.98;65.74;100980.81;1588054;88;21229;-61
2022/11/01 06:12:24;;;;;;;13.53;6.67;;;;;;;5.03;66.61;101005.02;1603827;88;21063;-64
2022/11/01 06:14:51;;;;;;;11.35;6.20;;;;;;;4.93;66.80;101004.97;1591988;88;21121;-61
2022/11/01 06:17:18;;;;;;;9.37;5.77;;;;;;;4.86;67.21;101006.02;1596214;88;21059;-62
2022/11/01 06:19:44;;;;;;;;;;;;;;;4.85;67.69;101004.33;1605112;88;21118;-62
2022/11/01 06:22:10;;;;;;;13.37;6.33;;;;;;;4.86;67.88;101001.23;1587882;89;20122;-68
2022/11/01 06:24:36;;;;;;;11.73;6.25;;;;;;;4.80;68.32;100999.09;1619302;87;21518;-68
2022/11/01 06:27:02;;;;;;;8.00;5.35;;;;;;;4.79;68.44;101005.37;1613110;87;21042;-60
2022/11/01 06:29:30;;;;;;;9.37;5.87;;;;;;;4.81;68.62;100998.14;1608441;87;21093;-60
2022/11/01 06:31:56;;;;;;;10.93;5.58;;;;;;;4.84;68.66;100998.71;1619937;87;20997;-58
2022/11/01 06:34:22;;;;;;;14.28;6.50;;;;;;;4.90;68.95;100996.48;1623276;86;21058;-60
2022/11/01 06:36:49;;;;;;;14.10;6.70;;;;;;;4.95;68.56;101003.03;1617878;87;21053;-60
2022/11/01 06:39:16;;;;;;;9.43;6.35;;;;;;;4.99;68.62;101009.73;1609658;87;21038;-60
2022/11/01 06:41:42;;;;;;;8.90;5.83;;;;;;;5.03;68.68;100999.73;1614793;89;21060;-61
2022/11/01 06:44:09;;;;;;;;;;;;;;;5.11;68.65;101004.34;1628492;86;22080;-61
2022/11/01 06:46:35;;;;;;;14.20;7.37;;;;;;;5.21;68.50;101007.33;1639444;86;20455;-60
2022/11/01 06:49:02;;;;;;;12.33;8.77;;;;;;;5.23;68.34;101005.38;1620828;86;21073;-59
2022/11/01 06:51:28;;;;;;;;;;;;;;;5.28;68.40;101008.12;1629393;86;21048;-59
2022/11/01 06:53:55;;;;;;;10.13;5.10;;;;;;;5.33;67.98;101013.81;1602531;86;20120;-60
2022/11/01 06:56:23;;;;;;;7.62;5.72;;;;;;;5.34;67.81;101004.92;1601016;88;21075;-60
2022/11/01 06:58:50;;;;;;;8.87;4.77;;;;;;;5.42;67.54;101001.09;1617198;87;21135;-61
2022/11/01 07:01:20;;;;;;;7.47;3.87;;;;;;;5.48;66.79;101007.63;1621678;87;21020;-59
2022/11/01 07:03:51;;;;;;;9.80;4.90;;;;;;;5.48;66.69;101002.34;1619027;87;21174;-59
2022/11/01 07:06:18;;;;;;;11.13;5.37;;;;;;;5.49;66.86;100998.24;1618228;85;21062;-61
2022/11/01 07:08:45;;;;;;;10.10;4.93;;;;;;;5.56;66.90;100998.04;1617175;87;20991;-63
2022/11/01 07:11:11;;;;;;;;;;;;;;;5.70;66.54;100990.66;1623100;87;21580;-61
2022/11/01 07:13:38;;;;;;;7.30;3.30;;;;;;;5.76;66.31;100992.23;1616264;87;20174;-62
2022/11/01 07:16:05;;;;;;;10.48;4.25;;;;;;;5.84;65.87;100992.87;1585123;88;21088;-60
2022/11/01 07:18:33;;;;;;;11.87;5.47;;;;;;;5.92;65.39;100993.00;1591899;89;21597;-60
2022/11/01 07:21:02;;;;;;;6.53;4.07;;;;;;;6.00;65.18;100997.11;1593044;89;21124;-61
2022/11/01 07:23:28;;;;;;;7.77;4.57;;;;;;;6.06;64.67;100994.88;1592545;89;21090;-60
2022/11/01 11:12:02;;;;;;;2.98;0.70;;;;;;;10.90;44.30;100842.16;1792507;78;22245;-63
2022/11/01 11:14:32;;;;;;;0.78;0.42;;;;;;;11.00;43.55;100839.28;1776709;78;21041;-63
2022/11/01 11:17:01;;;;;;;2.02;0.65;;;;;;;10.97;43.49;100840.14;1762573;77;21014;-64
2022/11/01 11:19:37;;;;;;;2.90;0.80;;;;;;;10.92;43.63;100837.98;1713614;82;21013;-62
2022/11/01 11:22:06;;;;;;;2.07;1.13;;;;;;;10.89;43.70;100838.36;1700608;83;21006;-65
2022/11/01 11:24:36;;;;;;;2.87;0.70;;;;;;;10.88;43.82;100834.02;1747770;80;21088;-63
2022/11/01 11:27:10;;;;;;;3.07;1.13;;;;;;;10.87;43.71;100834.53;1775041;80;22221;-62
2022/11/01 11:29:59;;;;;;;1.13;0.50;;;;;;;10.89;43.85;100836.52;1735877;80;21527;-64
2022/11/01 11:32:30;;;;;;;2.63;0.70;;;;;;;10.90;43.71;100829.34;1755242;80;21014;-63
2022/11/01 11:35:07;;;;;;;3.20;1.00;;;;;;;10.87;43.49;100827.05;1746452;80;21600;-61
2022/11/01 11:37:37;;;;;;;1.63;0.70;;;;;;;10.87;43.54;100831.05;1741479;80;21599;-63
2022/11/01 11:40:28;;;;;;;1.83;0.47;;;;;;;10.84;43.08;100833.55;1725831;81;21043;-65
2022/11/01 11:43:16;;;;;;;2.70;0.70;;;;;;;10.84;42.18;100832.73;1722376;81;21493;-63
2022/11/01 11:45:43;;;;;;;1.57;0.60;;;;;;;10.83;41.90;100837.72;1727362;80;21046;-63
2022/11/01 11:48:23;;;;;;;1.80;0.57;;;;;;;10.84;41.65;100832.22;1752716;80;21010;-64
2022/11/01 11:50:55;;;;;;;1.07;0.40;;;;;;;10.85;41.82;100837.89;1728807;81;21024;-63
2022/11/01 11:53:22;;;;;;;0.73;0.40;;;;;;;10.88;41.95;100836.69;1727342;81;21100;-63
2022/11/01 11:56:00;;;;;;;1.85;0.20;;;;;;;10.88;39.23;100838.02;1740293;81;21041;-65
2022/11/01 11:58:47;;;;;;;1.83;0.50;;;;;;;10.88;39.38;100836.69;1731214;81;20982;-64
2022/11/01 12:01:20;;;;;;;0.90;0.50;;;;;;;10.87;38.35;100844.38;1739837;82;21080;-66
2022/11/01 12:04:10;;;;;;;2.23;0.60;;;;;;;10.83;37.93;100844.39;1700987;81;21053;-63
2022/11/01 12:06:42;;;;;;;1.20;0.67;;;;;;;10.81;38.55;100839.73;1728090;81;21763;-61
2022/11/01 12:09:47;;;;;;;1.13;0.53;;;;;;;10.82;39.22;100840.08;1743339;80;20986;-61
2022/11/01 12:12:34;;;;;;;1.67;0.50;;;;;;;10.86;39.45;100840.05;1761642;80;20975;-64
2022/11/01 12:15:02;;;;;;;3.53;0.90;;;;;;;10.88;38.76;100836.69;1748189;80;21041;-62
2022/11/01 12:17:44;;;;;;;4.10;0.77;;;;;;;10.85;39.36;100839.70;1711678;81;21068;-60
2022/11/01 12:20:24;;;;;;;1.80;0.60;;;;;;;10.86;39.56;100839.53;1724788;81;21049;-62
2022/11/01 12:23:22;;;;;;;2.93;1.37;;;;;;;10.92;39.72;100836.66;1743296;80;21469;-62
2022/11/01 12:25:50;;;;;;;3.23;0.80;;;;;;;10.99;39.78;100834.12;1733974;80;20974;-62
2022/11/01 12:28:22;;;;;;;1.82;1.25;;;;;;;11.03;39.94;100833.56;1723718;82;20986;-61
2022/11/01 12:30:52;;;;;;;2.53;0.73;;;;;;;11.08;39.97;100838.38;1722906;81;21608;-63
2022/11/01 12:34:05;;;;;;;3.57;1.17;;;;;;;11.12;39.89;100840.19;1719735;80;21447;-64
2022/11/01 12:36:47;;;;;;;2.73;0.83;;;;;;;11.12;39.78;100840.19;1726787;81;21043;-62
2022/11/01 12:39:19;;;;;;;1.87;0.97;;;;;;;11.06;39.93;100843.89;1723337;81;21037;-63
2022/11/01 12:41:58;;;;;;;2.77;0.90;;;;;;;11.03;40.10;100842.91;1730421;80;20989;-60
2022/11/01 12:44:39;;;;;;;1.77;0.90;;;;;;;11.07;40.20;100846.05;1731223;80;21599;-63
2022/11/01 12:47:17;;;;;;;2.97;1.30;;;;;;;11.09;40.32;100839.55;1733023;80;21714;-61
2022/11/01 12:49:52;;;;;;;2.97;1.30;;;;;;;11.14;40.42;100842.98;1744400;81;20949;-62
2022/11/01 12:52:36;;;;;;;3.07;1.07;;;;;;;11.19;40.56;100834.44;1731843;81;21599;-63
2022/11/01 12:55:21;;;;;;;3.23;1.30;;;;;;;11.20;40.73;100833.44;1755478;80;21174;-61
2022/11/01 12:57:47;;;;;;;1.53;0.80;;;;;;;11.20;40.87;100829.44;1739646;80;20996;-62
2022/11/01 13:00:16;;;;;;;4.53;1.10;;;;;;;11.19;41.00;100825.09;1741760;81;21537;-61
2022/11/01 13:03:06;;;;;;;2.93;1.77;;;;;;;11.21;41.13;100823.92;1756254;80;21036;-61
2022/11/01 13:05:56;;;;;;;3.20;1.17;;;;;;;11.26;41.22;100822.03;1770545;79;21089;-61
2022/11/01 13:09:02;;;;;;;5.77;1.23;;;;;;;11.25;41.26;100817.72;1755430;81;21014;-61
2022/11/01 13:11:52;;;;;;;5.00;1.90;;;;;;;11.26;41.35;100819.37;1756536;80;21085;-63
2022/11/01 13:14:30;;;;;;;4.00;2.40;;;;;;;11.26;41.36;100812.69;1753802;81;21077;-62
2022/11/01 13:17:27;;;;;;;5.07;3.33;;;;;;;11.25;41.61;100816.39;1755272;80;21467;-61
2022/11/01 13:20:19;;;;;;;4.67;2.77;;;;;;;11.25;42.01;100817.72;1751858;80;21083;-62
2022/11/01 13:22:57;;;;;;;4.73;2.10;;;;;;;11.23;41.99;100815.75;1742390;81;21009;-61
2022/11/01 13:25:56;;;;;;;2.27;1.13;;;;;;;11.21;41.82;100811.92;1751958;81;21510;-62
2022/11/01 13:28:31;;;;;;;3.97;1.80;;;;;;;11.23;41.63;100808.56;1758922;80;21041;-63
2022/11/01 13:31:41;;;;;;;2.87;2.03;;;;;;;11.25;41.36;100804.38;1759316;80;21097;-62
2022/11/01 13:34:29;;;;;;;3.00;1.23;;;;;;;11.27;41.16;100811.19;1755187;80;21076;-63
2022/11/01 13:37:23;;;;;;;2.57;0.87;;;;;;;11.27;39.81;100803.69;1745699;81;21020;-61
2022/11/01 13:40:04;;;;;;;1.00;0.63;;;;;;;11.25;39.29;100800.38;1725855;81;21014;-63
2022/11/01 13:42:38;;;;;;;3.30;1.17;;;;;;;11.22;38.82;100795.39;1726374;81;21176;-63
2022/11/01 13:45:10;;;;;;;1.57;0.83;;;;;;;11.19;38.25;100793.92;1719134;81;21058;-63
2022/11/01 13:47:55;;;;;;;2.17;1.67;;;;;;;11.20;37.92;100786.74;1726938;81;21061;-63
2022/11/01 13:50:56;;;;;;;2.72;1.25;;;;;;;11.18;37.42;100783.43;1738946;81;21010;-63
2022/11/01 13:53:45;;;;;;;8.50;0.97;;;;;;;11.07;37.06;100772.17;1714550;81;21030;-63
2022/11/01 13:56:34;;;;;;;3.03;0.73;;;;;;;11.07;36.74;100782.84;1731559;81;21042;-62
2022/11/01 13:59:02;;;;;;;1.27;0.70;;;;;;;11.03;36.58;100776.73;1720926;81;21048;-63
2022/11/01 14:01:37;;;;;;;1.47;0.90;;;;;;;11.01;36.49;100772.91;1756701;80;20979;-63
2022/11/01 14:04:21;;;;;;;1.07;0.40;;;;;;;10.98;36.22;100769.28;1752387;80;21513;-64
2022/11/01 14:07:15;;;;;;;4.83;0.60;;;;;;;10.98;36.34;100767.95;1754813;80;21086;-64
2022/11/01 14:09:56;;;;;;;2.70;0.80;;;;;;;10.89;36.50;100761.84;1773303;79;21081;-62
2022/11/01 14:12:42;;;;;;;1.70;0.83;;;;;;;10.86;36.61;100770.70;1763302;79;21171;-64
2022/11/01 14:15:17;;;;;;;1.83;1.00;;;;;;;10.83;36.47;100764.38;1778240;79;21112;-64
2022/11/01 14:18:02;;;;;;;2.43;1.17;;;;;;;10.81;36.61;100769.07;1786139;79;21109;-63
2022/11/01 14:20:34;;;;;;;2.03;0.60;;;;;;;10.79;36.53;100770.58;1798155;79;21149;-62
2022/11/01 14:23:28;;;;;;;3.47;0.90;;;;;;;10.73;36.40;100766.48;1772319;79;21088;-62
2022/11/01 14:26:23;;;;;;;1.90;1.10;;;;;;;10.68;36.54;100765.19;1786604;79;21072;-63
2022/11/01 14:28:58;;;;;;;5.10;0.77;;;;;;;10.64;36.72;100767.03;1784001;79;21666;-64
2022/11/01 14:31:28;;;;;;;3.20;1.00;;;;;;;10.57;36.92;100760.27;1729324;82;21607;-63
2022/11/01 14:34:01;;;;;;;3.80;1.20;;;;;;;10.51;37.03;100756.99;1732038;80;21039;-65
2022/11/01 14:36:32;;;;;;;1.47;0.83;;;;;;;10.45;37.16;100761.20;1724847;80;21064;-63
2022/11/01 14:39:25;;;;;;;3.37;0.90;;;;;;;10.42;37.41;100758.87;1749878;81;21464;-63
2022/11/01 14:41:53;;;;;;;4.27;3.07;;;;;;;10.41;37.67;100760.38;1713349;82;21163;-62
2022/11/01 14:44:32;;;;;;;4.57;2.90;;;;;;;10.40;37.81;100756.07;1723904;80;21074;-62
2022/11/01 14:47:04;;;;;;;4.03;2.07;;;;;;;10.40;37.96;100757.41;1773780;79;21550;-62
2022/11/01 14:49:42;;;;;;;2.70;1.20;;;;;;;10.38;38.09;100750.06;1774584;79;21072;-63
2022/11/01 14:52:39;;;;;;;4.63;1.73;;;;;;;10.37;38.13;100746.57;1721512;81;21062;-64
2022/11/01 14:55:23;;;;;;;1.47;0.93;;;;;;;10.38;38.10;100739.40;1733384;81;21121;-63
2022/11/01 14:57:50;;;;;;;1.63;1.10;;;;;;;10.37;38.06;100743.91;1716726;82;21063;-64
2022/11/01 15:00:27;;;;;;;1.90;0.80;;;;;;;10.37;38.23;100747.09;1723271;82;22280;-64
2022/11/01 15:02:56;;;;;;;1.73;0.90;;;;;;;10.37;38.23;100747.09;1724579;82;21024;-63
2022/11/01 15:05:23;;;;;;;1.97;0.90;;;;;;;10.35;38.38;100743.77;1696478;82;21072;-63
2022/11/01 15:07:56;;;;;;;1.72;1.00;;;;;;;10.35;38.41;100745.92;1734759;82;21968;-63
2022/11/01 15:10:22;;;;;;;2.97;1.27;;;;;;;10.37;38.37;100752.41;1718054;82;21092;-63
2022/11/01 15:12:52;;;;;;;;;;;;;;;10.35;38.26;100745.11;1732830;81;21084;-63
2022/11/01 15:15:24;;;;;;;5.20;1.83;;;;;;;10.35;38.25;100735.27;1745856;81;20137;-62
2022/11/01 15:17:58;;;;;;;2.17;0.87;;;;;;;10.30;38.31;100741.59;1745057;81;21094;-64
2022/11/01 15:20:29;;;;;;;6.70;1.57;;;;;;;10.32;38.30;100744.45;1731384;81;21080;-63
2022/11/01 15:22:57;;;;;;;1.80;0.90;;;;;;;10.32;38.20;100736.46;1741287;81;21556;-64
2022/11/01 15:25:26;;;;;;;2.17;1.20;;;;;;;10.33;37.98;100739.44;1746521;81;21012;-63
2022/11/01 15:27:55;;;;;;;1.13;0.57;;;;;;;10.34;37.71;100736.29;1740095;81;21088;-65
2022/11/01 15:30:27;;;;;;;2.70;1.40;;;;;;;10.36;37.63;100736.09;1758037;81;20970;-64
2022/11/01 15:33:26;;;;;;;3.33;1.30;;;;;;;10.35;37.54;100737.11;1748666;80;21116;-64
2022/11/01 15:36:01;;;;;;;4.57;1.30;;;;;;;10.34;37.63;100744.28;1713383;82;21112;-65
2022/11/01 15:38:33;;;;;;;3.10;1.90;;;;;;;10.33;37.34;100738.10;1713585;82;21045;-64
2022/11/01 15:41:19;;;;;;;3.53;2.03;;;;;;;10.32;37.25;100740.45;1727212;82;20930;-63
2022/11/01 15:43:54;;;;;;;3.67;2.30;;;;;;;10.31;37.62;100740.12;1723357;82;20946;-64
2022/11/01 15:46:24;;;;;;;3.37;1.60;;;;;;;10.29;37.77;100735.44;1719854;81;21663;-65
2022/11/01 15:48:52;;;;;;;2.77;1.87;;;;;;;10.27;37.79;100730.80;1752615;80;21090;-64
2022/11/01 15:51:23;;;;;;;7.40;2.63;;;;;;;10.26;37.91;100727.78;1734236;81;21021;-65
2022/11/01 15:53:58;;;;;;;3.73;2.40;;;;;;;10.26;38.08;100729.13;1734202;80;20921;-65
2022/11/01 15:56:41;;;;;;;2.77;1.83;;;;;;;10.25;38.18;100734.14;1709845;80;21104;-64
2022/11/01 15:59:18;;;;;;;4.43;1.40;;;;;;;10.22;38.10;100726.48;1745323;80;21052;-65